sensor_id;sensor_type;location;lat;lon;timestamp;P1;durP1;ratioP1;P2;durP2;ratioP2
73684;SDS011;61985;51.070;14.064;2023-03-01T00:00:53;19.07;;;10.10;;
73684;SDS011;61985;51.070;14.064;2023-03-01T00:03:19;22.47;;;9.87;;
73684;SDS011;61985;51.070;14.064;2023-03-01T00:05:44;24.80;;;12.17;;
73684;SDS011;61985;51.070;14.064;2023-03-01T00:08:11;22.37;;;10.80;;
73684;SDS011;61985;51.070;14.064;2023-03-01T00:10:36;27.87;;;10.20;;
73684;SDS011;61985;51.070;14.064;2023-03-01T00:13:02;21.17;;;10.23;;
73684;SDS011;61985;51.070;14.064;2023-03-01T00:15:30;19.50;;;9.10;;
73684;SDS011;61985;51.070;14.064;2023-03-01T00:17:55;21.20;;;10.43;;
73684;SDS011;61985;51.070;14.064;2023-03-01T00:20:22;20.67;;;11.43;;
73684;SDS011;61985;51.070;14.064;2023-03-01T00:22:47;21.40;;;10.40;;
73684;SDS011;61985;51.070;14.064;2023-03-01T00:25:12;27.90;;;11.13;;
73684;SDS011;61985;51.070;14.064;2023-03-01T00:27:38;24.30;;;10.43;;
73684;SDS011;61985;51.070;14.064;2023-03-01T00:30:03;25.40;;;10.60;;
73684;SDS011;61985;51.070;14.064;2023-03-01T00:32:29;21.67;;;10.30;;
73684;SDS011;61985;51.070;14.064;2023-03-01T00:34:54;24.03;;;10.20;;
73684;SDS011;61985;51.070;14.064;2023-03-01T00:37:23;22.07;;;10.97;;
73684;SDS011;61985;51.070;14.064;2023-03-01T00:39:48;24.60;;;11.80;;
73684;SDS011;61985;51.070;14.064;2023-03-01T00:42:14;22.20;;;10.17;;
73684;SDS011;61985;51.070;14.064;2023-03-01T00:44:40;21.03;;;9.47;;
73684;SDS011;61985;51.070;14.064;2023-03-01T00:47:05;22.13;;;11.10;;
73684;SDS011;61985;51.070;14.064;2023-03-01T00:49:31;20.87;;;10.43;;
73684;SDS011;61985;51.070;14.064;2023-03-01T00:51:56;20.23;;;10.30;;
73684;SDS011;61985;51.070;14.064;2023-03-01T00:54:21;25.23;;;9.80;;
73684;SDS011;61985;51.070;14.064;2023-03-01T00:56:47;23.07;;;10.40;;
73684;SDS011;61985;51.070;14.064;2023-03-01T00:59:12;21.30;;;9.83;;
73684;SDS011;61985;51.070;14.064;2023-03-01T01:01:37;21.47;;;9.43;;
73684;SDS011;61985;51.070;14.064;2023-03-01T01:04:04;22.30;;;10.10;;
73684;SDS011;61985;51.070;14.064;2023-03-01T01:06:36;21.97;;;11.37;;
73684;SDS011;61985;51.070;14.064;2023-03-01T01:09:04;20.73;;;9.60;;
73684;SDS011;61985;51.070;14.064;2023-03-01T01:11:33;23.13;;;9.47;;
73684;SDS011;61985;51.070;14.064;2023-03-01T01:14:00;21.77;;;9.63;;
73684;SDS011;61985;51.070;14.064;2023-03-01T01:16:26;19.03;;;9.90;;
73684;SDS011;61985;51.070;14.064;2023-03-01T01:18:53;25.83;;;10.90;;
73684;SDS011;61985;51.070;14.064;2023-03-01T01:21:19;19.60;;;9.80;;
73684;SDS011;61985;51.070;14.064;2023-03-01T01:23:47;26.83;;;11.43;;
73684;SDS011;61985;51.070;14.064;2023-03-01T01:26:17;23.97;;;10.87;;
73684;SDS011;61985;51.070;14.064;2023-03-01T01:28:48;25.33;;;11.80;;
73684;SDS011;61985;51.070;14.064;2023-03-01T01:31:14;18.70;;;9.83;;
73684;SDS011;61985;51.070;14.064;2023-03-01T01:33:39;21.23;;;9.20;;
73684;SDS011;61985;51.070;14.064;2023-03-01T01:36:05;25.70;;;11.00;;
73684;SDS011;61985;51.070;14.064;2023-03-01T01:38:32;21.80;;;10.77;;
73684;SDS011;61985;51.070;14.064;2023-03-01T01:40:58;21.47;;;9.80;;
73684;SDS011;61985;51.070;14.064;2023-03-01T01:43:28;22.00;;;10.30;;
73684;SDS011;61985;51.070;14.064;2023-03-01T01:46:16;26.20;;;11.23;;
73684;SDS011;61985;51.070;14.064;2023-03-01T01:49:00;22.17;;;9.67;;
73684;SDS011;61985;51.070;14.064;2023-03-01T01:51:29;21.87;;;10.50;;
73684;SDS011;61985;51.070;14.064;2023-03-01T01:54:03;20.77;;;10.17;;
73684;SDS011;61985;51.070;14.064;2023-03-01T01:56:33;22.30;;;8.93;;
73684;SDS011;61985;51.070;14.064;2023-03-01T01:58:59;20.13;;;9.40;;
73684;SDS011;61985;51.070;14.064;2023-03-01T02:01:24;21.50;;;9.90;;
73684;SDS011;61985;51.070;14.064;2023-03-01T02:03:50;17.13;;;8.83;;
73684;SDS011;61985;51.070;14.064;2023-03-01T02:06:26;16.17;;;7.43;;
73684;SDS011;61985;51.070;14.064;2023-03-01T02:08:55;21.07;;;10.40;;
73684;SDS011;61985;51.070;14.064;2023-03-01T02:11:24;22.20;;;10.10;;
73684;SDS011;61985;51.070;14.064;2023-03-01T02:13:50;18.80;;;8.97;;
73684;SDS011;61985;51.070;14.064;2023-03-01T02:16:18;19.97;;;9.23;;
73684;SDS011;61985;51.070;14.064;2023-03-01T02:18:44;23.03;;;9.13;;
73684;SDS011;61985;51.070;14.064;2023-03-01T02:24:10;20.17;;;8.67;;
73684;SDS011;61985;51.070;14.064;2023-03-01T02:26:48;21.00;;;9.13;;
73684;SDS011;61985;51.070;14.064;2023-03-01T02:29:16;18.40;;;8.30;;
73684;SDS011;61985;51.070;14.064;2023-03-01T02:31:41;20.77;;;9.00;;
73684;SDS011;61985;51.070;14.064;2023-03-01T02:34:17;19.13;;;8.23;;
73684;SDS011;61985;51.070;14.064;2023-03-01T02:36:47;20.90;;;8.73;;
73684;SDS011;61985;51.070;14.064;2023-03-01T02:39:20;17.00;;;7.17;;
73684;SDS011;61985;51.070;14.064;2023-03-01T02:41:51;16.20;;;7.47;;
73684;SDS011;61985;51.070;14.064;2023-03-01T02:44:19;17.27;;;8.40;;
73684;SDS011;61985;51.070;14.064;2023-03-01T02:46:46;18.97;;;8.60;;
73684;SDS011;61985;51.070;14.064;2023-03-01T02:49:21;20.93;;;8.13;;
73684;SDS011;61985;51.070;14.064;2023-03-01T02:57:07;17.03;;;7.13;;
73684;SDS011;61985;51.070;14.064;2023-03-01T02:59:34;15.23;;;7.60;;
73684;SDS011;61985;51.070;14.064;2023-03-01T03:02:04;15.65;;;7.82;;
73684;SDS011;61985;51.070;14.064;2023-03-01T03:04:30;17.93;;;7.73;;
73684;SDS011;61985;51.070;14.064;2023-03-01T03:06:56;16.30;;;7.33;;
73684;SDS011;61985;51.070;14.064;2023-03-01T03:09:21;17.30;;;7.53;;
73684;SDS011;61985;51.070;14.064;2023-03-01T03:11:46;18.80;;;7.43;;
73684;SDS011;61985;51.070;14.064;2023-03-01T03:14:13;16.63;;;7.20;;
73684;SDS011;61985;51.070;14.064;2023-03-01T03:16:44;17.77;;;8.27;;
73684;SDS011;61985;51.070;14.064;2023-03-01T03:19:12;18.70;;;8.33;;
73684;SDS011;61985;51.070;14.064;2023-03-01T03:21:37;20.97;;;9.30;;
73684;SDS011;61985;51.070;14.064;2023-03-01T03:24:03;15.40;;;8.17;;
73684;SDS011;61985;51.070;14.064;2023-03-01T03:26:29;19.20;;;9.00;;
73684;SDS011;61985;51.070;14.064;2023-03-01T03:28:54;26.17;;;9.67;;
73684;SDS011;61985;51.070;14.064;2023-03-01T03:31:20;19.13;;;9.07;;
73684;SDS011;61985;51.070;14.064;2023-03-01T03:33:45;21.53;;;9.27;;
73684;SDS011;61985;51.070;14.064;2023-03-01T03:36:15;20.93;;;9.33;;
73684;SDS011;61985;51.070;14.064;2023-03-01T03:38:44;20.90;;;9.07;;
73684;SDS011;61985;51.070;14.064;2023-03-01T03:41:11;20.10;;;9.77;;
73684;SDS011;61985;51.070;14.064;2023-03-01T03:43:38;18.27;;;9.03;;
73684;SDS011;61985;51.070;14.064;2023-03-01T03:46:05;19.03;;;7.53;;
73684;SDS011;61985;51.070;14.064;2023-03-01T03:48:30;17.30;;;7.83;;
73684;SDS011;61985;51.070;14.064;2023-03-01T03:51:00;16.07;;;8.57;;
73684;SDS011;61985;51.070;14.064;2023-03-01T03:53:26;22.63;;;9.33;;
73684;SDS011;61985;51.070;14.064;2023-03-01T03:55:52;14.50;;;7.33;;
73684;SDS011;61985;51.070;14.064;2023-03-01T03:58:18;20.23;;;8.93;;
73684;SDS011;61985;51.070;14.064;2023-03-01T04:00:46;21.97;;;8.87;;
73684;SDS011;61985;51.070;14.064;2023-03-01T04:03:13;21.23;;;9.53;;
73684;SDS011;61985;51.070;14.064;2023-03-01T04:05:40;19.57;;;9.17;;
73684;SDS011;61985;51.070;14.064;2023-03-01T04:08:06;19.70;;;9.40;;
73684;SDS011;61985;51.070;14.064;2023-03-01T04:10:38;24.87;;;10.03;;
73684;SDS011;61985;51.070;14.064;2023-03-01T04:13:05;22.33;;;9.40;;
73684;SDS011;61985;51.070;14.064;2023-03-01T04:15:32;19.87;;;8.97;;
73684;SDS011;61985;51.070;14.064;2023-03-01T04:17:58;15.50;;;8.23;;
73684;SDS011;61985;51.070;14.064;2023-03-01T04:20:26;20.60;;;8.20;;
73684;SDS011;61985;51.070;14.064;2023-03-01T04:22:58;15.83;;;8.17;;
73684;SDS011;61985;51.070;14.064;2023-03-01T04:25:33;17.10;;;8.87;;
73684;SDS011;61985;51.070;14.064;2023-03-01T04:27:58;18.83;;;8.37;;
73684;SDS011;61985;51.070;14.064;2023-03-01T04:30:24;19.03;;;7.27;;
73684;SDS011;61985;51.070;14.064;2023-03-01T04:32:50;18.90;;;8.03;;
73684;SDS011;61985;51.070;14.064;2023-03-01T04:35:15;14.77;;;7.47;;
73684;SDS011;61985;51.070;14.064;2023-03-01T04:37:40;13.40;;;7.70;;
73684;SDS011;61985;51.070;14.064;2023-03-01T04:40:06;14.67;;;7.87;;
73684;SDS011;61985;51.070;14.064;2023-03-01T04:42:41;20.97;;;8.30;;
73684;SDS011;61985;51.070;14.064;2023-03-01T04:45:07;16.37;;;8.33;;
73684;SDS011;61985;51.070;14.064;2023-03-01T04:47:38;14.80;;;7.82;;
73684;SDS011;61985;51.070;14.064;2023-03-01T04:50:04;16.33;;;8.47;;
73684;SDS011;61985;51.070;14.064;2023-03-01T04:52:30;21.87;;;8.80;;
73684;SDS011;61985;51.070;14.064;2023-03-01T04:54:56;22.70;;;10.23;;
73684;SDS011;61985;51.070;14.064;2023-03-01T04:57:21;23.23;;;10.53;;
73684;SDS011;61985;51.070;14.064;2023-03-01T04:59:47;21.40;;;9.80;;
73684;SDS011;61985;51.070;14.064;2023-03-01T05:02:12;21.10;;;8.73;;
73684;SDS011;61985;51.070;14.064;2023-03-01T05:04:37;18.30;;;9.07;;
73684;SDS011;61985;51.070;14.064;2023-03-01T05:07:03;19.30;;;9.13;;
73684;SDS011;61985;51.070;14.064;2023-03-01T05:09:28;14.20;;;7.70;;
73684;SDS011;61985;51.070;14.064;2023-03-01T05:11:53;18.23;;;9.17;;
73684;SDS011;61985;51.070;14.064;2023-03-01T05:14:18;19.27;;;8.77;;
73684;SDS011;61985;51.070;14.064;2023-03-01T05:16:44;19.80;;;9.27;;
73684;SDS011;61985;51.070;14.064;2023-03-01T05:19:09;18.73;;;8.87;;
73684;SDS011;61985;51.070;14.064;2023-03-01T05:21:40;15.90;;;7.82;;
73684;SDS011;61985;51.070;14.064;2023-03-01T05:24:26;17.07;;;6.97;;
73684;SDS011;61985;51.070;14.064;2023-03-01T05:26:52;19.77;;;8.43;;
73684;SDS011;61985;51.070;14.064;2023-03-01T05:29:21;16.50;;;7.27;;
73684;SDS011;61985;51.070;14.064;2023-03-01T05:34:18;18.93;;;8.40;;
73684;SDS011;61985;51.070;14.064;2023-03-01T05:36:48;20.17;;;9.23;;
73684;SDS011;61985;51.070;14.064;2023-03-01T05:39:17;19.47;;;9.50;;
73684;SDS011;61985;51.070;14.064;2023-03-01T05:41:44;21.70;;;10.60;;
73684;SDS011;61985;51.070;14.064;2023-03-01T05:44:09;27.13;;;10.53;;
73684;SDS011;61985;51.070;14.064;2023-03-01T05:46:36;21.03;;;8.47;;
73684;SDS011;61985;51.070;14.064;2023-03-01T05:49:01;23.23;;;10.50;;
73684;SDS011;61985;51.070;14.064;2023-03-01T05:51:27;23.97;;;10.90;;
73684;SDS011;61985;51.070;14.064;2023-03-01T05:53:52;27.37;;;12.47;;
73684;SDS011;61985;51.070;14.064;2023-03-01T05:56:18;25.50;;;11.97;;
73684;SDS011;61985;51.070;14.064;2023-03-01T05:58:43;21.97;;;11.50;;
73684;SDS011;61985;51.070;14.064;2023-03-01T06:01:11;25.33;;;10.77;;
73684;SDS011;61985;51.070;14.064;2023-03-01T06:03:38;18.90;;;9.23;;
73684;SDS011;61985;51.070;14.064;2023-03-01T06:06:03;21.83;;;10.30;;
73684;SDS011;61985;51.070;14.064;2023-03-01T06:08:29;38.10;;;17.73;;
73684;SDS011;61985;51.070;14.064;2023-03-01T06:10:54;44.03;;;19.17;;
73684;SDS011;61985;51.070;14.064;2023-03-01T06:13:19;21.37;;;10.27;;
73684;SDS011;61985;51.070;14.064;2023-03-01T06:15:45;39.57;;;17.90;;
73684;SDS011;61985;51.070;14.064;2023-03-01T06:18:10;43.73;;;19.87;;
73684;SDS011;61985;51.070;14.064;2023-03-01T06:20:35;44.93;;;19.13;;
73684;SDS011;61985;51.070;14.064;2023-03-01T06:23:01;19.07;;;8.00;;
73684;SDS011;61985;51.070;14.064;2023-03-01T06:25:26;29.33;;;14.33;;
73684;SDS011;61985;51.070;14.064;2023-03-01T06:27:52;23.67;;;10.20;;
73684;SDS011;61985;51.070;14.064;2023-03-01T06:30:18;25.60;;;13.33;;
73684;SDS011;61985;51.070;14.064;2023-03-01T06:32:45;33.07;;;15.03;;
73684;SDS011;61985;51.070;14.064;2023-03-01T06:35:11;23.43;;;10.63;;
73684;SDS011;61985;51.070;14.064;2023-03-01T06:37:37;23.87;;;11.23;;
73684;SDS011;61985;51.070;14.064;2023-03-01T06:40:04;29.57;;;12.93;;
73684;SDS011;61985;51.070;14.064;2023-03-01T06:42:33;27.70;;;10.77;;
73684;SDS011;61985;51.070;14.064;2023-03-01T06:44:59;29.30;;;13.00;;
73684;SDS011;61985;51.070;14.064;2023-03-01T06:47:25;18.73;;;10.20;;
73684;SDS011;61985;51.070;14.064;2023-03-01T06:49:50;19.63;;;9.30;;
73684;SDS011;61985;51.070;14.064;2023-03-01T06:52:15;19.17;;;9.70;;
73684;SDS011;61985;51.070;14.064;2023-03-01T06:54:40;25.10;;;10.67;;
73684;SDS011;61985;51.070;14.064;2023-03-01T06:57:06;22.73;;;10.57;;
73684;SDS011;61985;51.070;14.064;2023-03-01T06:59:31;21.07;;;11.20;;
73684;SDS011;61985;51.070;14.064;2023-03-01T07:01:56;28.73;;;11.37;;
73684;SDS011;61985;51.070;14.064;2023-03-01T07:04:21;23.77;;;10.73;;
73684;SDS011;61985;51.070;14.064;2023-03-01T07:06:47;29.97;;;11.00;;
73684;SDS011;61985;51.070;14.064;2023-03-01T07:09:19;25.30;;;10.97;;
73684;SDS011;61985;51.070;14.064;2023-03-01T07:11:46;26.37;;;10.90;;
73684;SDS011;61985;51.070;14.064;2023-03-01T07:14:12;27.53;;;10.70;;
73684;SDS011;61985;51.070;14.064;2023-03-01T07:16:37;21.40;;;10.17;;
73684;SDS011;61985;51.070;14.064;2023-03-01T07:19:02;19.67;;;10.20;;
73684;SDS011;61985;51.070;14.064;2023-03-01T07:21:28;23.20;;;10.57;;
73684;SDS011;61985;51.070;14.064;2023-03-01T07:23:53;25.07;;;10.43;;
73684;SDS011;61985;51.070;14.064;2023-03-01T07:26:18;24.40;;;10.20;;
73684;SDS011;61985;51.070;14.064;2023-03-01T07:28:43;26.17;;;10.63;;
73684;SDS011;61985;51.070;14.064;2023-03-01T07:31:09;28.83;;;13.07;;
73684;SDS011;61985;51.070;14.064;2023-03-01T07:33:34;24.53;;;11.50;;
73684;SDS011;61985;51.070;14.064;2023-03-01T07:36:00;20.57;;;10.57;;
73684;SDS011;61985;51.070;14.064;2023-03-01T07:38:27;23.17;;;10.90;;
73684;SDS011;61985;51.070;14.064;2023-03-01T07:40:53;25.73;;;10.50;;
73684;SDS011;61985;51.070;14.064;2023-03-01T07:43:22;29.33;;;12.67;;
73684;SDS011;61985;51.070;14.064;2023-03-01T07:45:47;24.13;;;11.90;;
73684;SDS011;61985;51.070;14.064;2023-03-01T07:48:12;25.63;;;11.53;;
73684;SDS011;61985;51.070;14.064;2023-03-01T07:50:38;28.43;;;12.67;;
73684;SDS011;61985;51.070;14.064;2023-03-01T07:53:03;29.63;;;15.27;;
73684;SDS011;61985;51.070;14.064;2023-03-01T07:55:29;31.30;;;15.00;;
73684;SDS011;61985;51.070;14.064;2023-03-01T07:57:55;31.47;;;14.43;;
73684;SDS011;61985;51.070;14.064;2023-03-01T08:00:20;34.13;;;14.87;;
73684;SDS011;61985;51.070;14.064;2023-03-01T08:02:45;29.93;;;13.77;;
73684;SDS011;61985;51.070;14.064;2023-03-01T08:05:11;31.33;;;14.73;;
73684;SDS011;61985;51.070;14.064;2023-03-01T08:07:36;39.70;;;17.90;;
73684;SDS011;61985;51.070;14.064;2023-03-01T08:10:02;35.03;;;16.60;;
73684;SDS011;61985;51.070;14.064;2023-03-01T08:12:28;33.57;;;15.77;;
73684;SDS011;61985;51.070;14.064;2023-03-01T08:14:53;33.63;;;15.47;;
73684;SDS011;61985;51.070;14.064;2023-03-01T08:17:19;34.43;;;16.70;;
73684;SDS011;61985;51.070;14.064;2023-03-01T08:19:44;32.80;;;14.60;;
73684;SDS011;61985;51.070;14.064;2023-03-01T08:22:09;28.93;;;14.30;;
73684;SDS011;61985;51.070;14.064;2023-03-01T08:24:35;27.50;;;13.40;;
73684;SDS011;61985;51.070;14.064;2023-03-01T08:27:00;32.87;;;14.03;;
73684;SDS011;61985;51.070;14.064;2023-03-01T08:29:27;30.47;;;13.93;;
73684;SDS011;61985;51.070;14.064;2023-03-01T08:31:53;25.23;;;13.00;;
73684;SDS011;61985;51.070;14.064;2023-03-01T08:34:18;31.23;;;14.00;;
73684;SDS011;61985;51.070;14.064;2023-03-01T08:36:44;26.37;;;14.03;;
73684;SDS011;61985;51.070;14.064;2023-03-01T08:39:12;36.15;;;15.60;;
73684;SDS011;61985;51.070;14.064;2023-03-01T08:41:39;34.60;;;16.23;;
73684;SDS011;61985;51.070;14.064;2023-03-01T08:44:05;28.65;;;14.00;;
73684;SDS011;61985;51.070;14.064;2023-03-01T08:46:35;31.52;;;14.75;;
73684;SDS011;61985;51.070;14.064;2023-03-01T08:49:06;30.80;;;14.77;;
73684;SDS011;61985;51.070;14.064;2023-03-01T08:51:36;34.30;;;15.35;;
73684;SDS011;61985;51.070;14.064;2023-03-01T08:54:05;29.08;;;13.85;;
73684;SDS011;61985;51.070;14.064;2023-03-01T08:56:34;31.58;;;15.60;;
73684;SDS011;61985;51.070;14.064;2023-03-01T08:59:00;30.05;;;13.43;;
73684;SDS011;61985;51.070;14.064;2023-03-01T09:01:25;26.38;;;11.60;;
73684;SDS011;61985;51.070;14.064;2023-03-01T09:03:50;29.10;;;14.48;;
73684;SDS011;61985;51.070;14.064;2023-03-01T09:06:16;35.38;;;14.40;;
73684;SDS011;61985;51.070;14.064;2023-03-01T09:08:42;31.38;;;13.05;;
73684;SDS011;61985;51.070;14.064;2023-03-01T09:11:10;26.83;;;12.98;;
73684;SDS011;61985;51.070;14.064;2023-03-01T09:13:37;31.63;;;14.07;;
73684;SDS011;61985;51.070;14.064;2023-03-01T09:16:04;29.90;;;14.05;;
73684;SDS011;61985;51.070;14.064;2023-03-01T09:18:31;27.10;;;13.68;;
73684;SDS011;61985;51.070;14.064;2023-03-01T09:21:02;31.05;;;14.63;;
73684;SDS011;61985;51.070;14.064;2023-03-01T09:23:32;28.98;;;13.23;;
73684;SDS011;61985;51.070;14.064;2023-03-01T09:25:58;27.33;;;12.52;;
73684;SDS011;61985;51.070;14.064;2023-03-01T09:28:23;26.95;;;12.68;;
73684;SDS011;61985;51.070;14.064;2023-03-01T09:30:48;29.42;;;14.45;;
73684;SDS011;61985;51.070;14.064;2023-03-01T09:33:14;26.05;;;12.75;;
73684;SDS011;61985;51.070;14.064;2023-03-01T09:35:39;26.83;;;12.70;;
73684;SDS011;61985;51.070;14.064;2023-03-01T09:38:10;26.83;;;11.82;;
73684;SDS011;61985;51.070;14.064;2023-03-01T09:40:36;29.85;;;13.55;;
73684;SDS011;61985;51.070;14.064;2023-03-01T09:43:08;25.40;;;12.05;;
73684;SDS011;61985;51.070;14.064;2023-03-01T09:45:44;28.05;;;12.55;;
73684;SDS011;61985;51.070;14.064;2023-03-01T09:48:19;27.42;;;14.02;;
73684;SDS011;61985;51.070;14.064;2023-03-01T09:50:48;29.13;;;12.40;;
73684;SDS011;61985;51.070;14.064;2023-03-01T09:53:22;29.30;;;13.13;;
73684;SDS011;61985;51.070;14.064;2023-03-01T09:55:55;25.17;;;12.05;;
73684;SDS011;61985;51.070;14.064;2023-03-01T09:58:54;24.40;;;10.38;;
73684;SDS011;61985;51.070;14.064;2023-03-01T10:01:40;28.30;;;10.40;;
73684;SDS011;61985;51.070;14.064;2023-03-01T10:07:36;23.98;;;11.18;;
73684;SDS011;61985;51.070;14.064;2023-03-01T10:09:59;21.13;;;11.02;;
73684;SDS011;61985;51.070;14.064;2023-03-01T10:12:27;28.75;;;12.80;;
73684;SDS011;61985;51.070;14.064;2023-03-01T10:15:05;23.60;;;11.30;;
73684;SDS011;61985;51.070;14.064;2023-03-01T10:17:47;22.23;;;10.85;;
73684;SDS011;61985;51.070;14.064;2023-03-01T10:22:43;22.13;;;11.50;;
73684;SDS011;61985;51.070;14.064;2023-03-01T10:25:12;21.90;;;10.93;;
73684;SDS011;61985;51.070;14.064;2023-03-01T10:27:46;23.67;;;11.65;;
73684;SDS011;61985;51.070;14.064;2023-03-01T10:32:45;27.27;;;10.95;;
73684;SDS011;61985;51.070;14.064;2023-03-01T10:40:52;24.20;;;11.85;;
73684;SDS011;61985;51.070;14.064;2023-03-01T10:43:18;27.77;;;12.68;;
73684;SDS011;61985;51.070;14.064;2023-03-01T10:45:44;26.02;;;11.95;;
73684;SDS011;61985;51.070;14.064;2023-03-01T10:48:22;27.38;;;11.98;;
73684;SDS011;61985;51.070;14.064;2023-03-01T10:51:04;22.77;;;11.20;;
73684;SDS011;61985;51.070;14.064;2023-03-01T10:53:35;26.13;;;10.57;;
73684;SDS011;61985;51.070;14.064;2023-03-01T10:56:04;21.88;;;10.73;;
73684;SDS011;61985;51.070;14.064;2023-03-01T10:58:32;21.00;;;10.45;;
73684;SDS011;61985;51.070;14.064;2023-03-01T11:01:00;24.27;;;11.10;;
73684;SDS011;61985;51.070;14.064;2023-03-01T11:03:33;26.88;;;10.98;;
73684;SDS011;61985;51.070;14.064;2023-03-01T11:06:01;24.23;;;11.90;;
73684;SDS011;61985;51.070;14.064;2023-03-01T11:08:45;23.80;;;11.30;;
73684;SDS011;61985;51.070;14.064;2023-03-01T11:13:38;25.60;;;11.85;;
73684;SDS011;61985;51.070;14.064;2023-03-01T11:16:25;27.15;;;12.30;;
73684;SDS011;61985;51.070;14.064;2023-03-01T11:19:12;26.30;;;12.18;;
73684;SDS011;61985;51.070;14.064;2023-03-01T11:21:49;30.65;;;14.30;;
73684;SDS011;61985;51.070;14.064;2023-03-01T11:24:18;26.45;;;12.02;;
73684;SDS011;61985;51.070;14.064;2023-03-01T11:26:50;27.95;;;11.85;;
73684;SDS011;61985;51.070;14.064;2023-03-01T11:29:21;28.85;;;13.23;;
73684;SDS011;61985;51.070;14.064;2023-03-01T11:31:54;28.98;;;14.43;;
73684;SDS011;61985;51.070;14.064;2023-03-01T11:35:05;32.20;;;14.82;;
73684;SDS011;61985;51.070;14.064;2023-03-01T11:37:40;27.70;;;13.93;;
73684;SDS011;61985;51.070;14.064;2023-03-01T11:42:47;27.63;;;12.90;;
73684;SDS011;61985;51.070;14.064;2023-03-01T11:45:19;26.52;;;12.68;;
73684;SDS011;61985;51.070;14.064;2023-03-01T11:58:17;22.38;;;11.20;;
73684;SDS011;61985;51.070;14.064;2023-03-01T12:06:38;27.23;;;13.77;;
73684;SDS011;61985;51.070;14.064;2023-03-01T12:09:19;30.52;;;13.88;;
73684;SDS011;61985;51.070;14.064;2023-03-01T12:17:58;28.70;;;14.68;;
73684;SDS011;61985;51.070;14.064;2023-03-01T12:20:36;27.05;;;12.23;;
73684;SDS011;61985;51.070;14.064;2023-03-01T12:26:08;27.30;;;13.23;;
73684;SDS011;61985;51.070;14.064;2023-03-01T12:29:01;26.50;;;12.75;;
73684;SDS011;61985;51.070;14.064;2023-03-01T12:31:43;30.02;;;12.88;;
73684;SDS011;61985;51.070;14.064;2023-03-01T12:54:29;27.23;;;12.95;;
73684;SDS011;61985;51.070;14.064;2023-03-01T12:57:00;27.75;;;13.23;;
73684;SDS011;61985;51.070;14.064;2023-03-01T12:59:38;27.92;;;12.85;;
73684;SDS011;61985;51.070;14.064;2023-03-01T13:07:26;28.20;;;13.52;;
73684;SDS011;61985;51.070;14.064;2023-03-01T13:10:03;33.75;;;14.55;;
73684;SDS011;61985;51.070;14.064;2023-03-01T13:17:47;30.25;;;14.15;;
73684;SDS011;61985;51.070;14.064;2023-03-01T13:20:15;26.98;;;12.95;;
73684;SDS011;61985;51.070;14.064;2023-03-01T13:22:43;26.85;;;13.43;;
73684;SDS011;61985;51.070;14.064;2023-03-01T13:25:17;27.92;;;12.15;;
73684;SDS011;61985;51.070;14.064;2023-03-01T13:27:44;25.33;;;12.43;;
73684;SDS011;61985;51.070;14.064;2023-03-01T13:35:55;22.92;;;10.95;;
73684;SDS011;61985;51.070;14.064;2023-03-01T13:38:38;26.98;;;12.35;;
73684;SDS011;61985;51.070;14.064;2023-03-01T13:41:10;25.67;;;12.15;;
73684;SDS011;61985;51.070;14.064;2023-03-01T13:43:38;22.90;;;11.63;;
73684;SDS011;61985;51.070;14.064;2023-03-01T13:46:10;25.08;;;11.65;;
73684;SDS011;61985;51.070;14.064;2023-03-01T13:48:41;30.60;;;11.88;;
73684;SDS011;61985;51.070;14.064;2023-03-01T13:51:10;25.92;;;12.07;;
73684;SDS011;61985;51.070;14.064;2023-03-01T13:53:39;28.02;;;12.70;;
73684;SDS011;61985;51.070;14.064;2023-03-01T13:56:09;25.73;;;13.50;;
73684;SDS011;61985;51.070;14.064;2023-03-01T13:58:46;25.65;;;12.93;;
73684;SDS011;61985;51.070;14.064;2023-03-01T14:04:00;23.85;;;11.02;;
73684;SDS011;61985;51.070;14.064;2023-03-01T14:06:43;23.42;;;12.50;;
73684;SDS011;61985;51.070;14.064;2023-03-01T14:09:10;24.17;;;11.48;;
73684;SDS011;61985;51.070;14.064;2023-03-01T14:14:48;23.98;;;11.50;;
73684;SDS011;61985;51.070;14.064;2023-03-01T14:20:11;24.58;;;12.23;;
73684;SDS011;61985;51.070;14.064;2023-03-01T14:22:41;26.67;;;12.32;;
73684;SDS011;61985;51.070;14.064;2023-03-01T14:25:19;27.25;;;12.25;;
73684;SDS011;61985;51.070;14.064;2023-03-01T14:27:54;26.75;;;11.70;;
73684;SDS011;61985;51.070;14.064;2023-03-01T14:33:24;24.38;;;11.77;;
73684;SDS011;61985;51.070;14.064;2023-03-01T14:35:59;22.73;;;11.25;;
73684;SDS011;61985;51.070;14.064;2023-03-01T14:38:33;24.48;;;12.27;;
73684;SDS011;61985;51.070;14.064;2023-03-01T14:41:02;22.23;;;11.35;;
73684;SDS011;61985;51.070;14.064;2023-03-01T14:43:30;24.17;;;11.63;;
73684;SDS011;61985;51.070;14.064;2023-03-01T14:45:56;21.25;;;11.25;;
73684;SDS011;61985;51.070;14.064;2023-03-01T14:48:22;20.83;;;11.55;;
73684;SDS011;61985;51.070;14.064;2023-03-01T14:50:48;21.95;;;11.77;;
73684;SDS011;61985;51.070;14.064;2023-03-01T14:53:18;23.80;;;11.57;;
73684;SDS011;61985;51.070;14.064;2023-03-01T14:58:17;21.23;;;9.90;;
73684;SDS011;61985;51.070;14.064;2023-03-01T15:00:48;22.45;;;10.38;;
73684;SDS011;61985;51.070;14.064;2023-03-01T15:03:23;25.27;;;11.13;;
73684;SDS011;61985;51.070;14.064;2023-03-01T15:05:51;22.23;;;11.00;;
73684;SDS011;61985;51.070;14.064;2023-03-01T15:08:19;21.10;;;9.73;;
73684;SDS011;61985;51.070;14.064;2023-03-01T15:10:58;21.50;;;10.13;;
73684;SDS011;61985;51.070;14.064;2023-03-01T15:13:45;20.20;;;10.32;;
73684;SDS011;61985;51.070;14.064;2023-03-01T15:16:14;19.42;;;10.20;;
73684;SDS011;61985;51.070;14.064;2023-03-01T15:18:48;26.65;;;13.75;;
73684;SDS011;61985;51.070;14.064;2023-03-01T15:21:16;20.88;;;9.95;;
73684;SDS011;61985;51.070;14.064;2023-03-01T15:23:54;18.75;;;10.23;;
73684;SDS011;61985;51.070;14.064;2023-03-01T15:26:26;17.90;;;9.60;;
73684;SDS011;61985;51.070;14.064;2023-03-01T15:28:55;18.02;;;9.55;;
73684;SDS011;61985;51.070;14.064;2023-03-01T15:31:36;20.13;;;9.25;;
73684;SDS011;61985;51.070;14.064;2023-03-01T15:36:55;18.73;;;8.77;;
73684;SDS011;61985;51.070;14.064;2023-03-01T15:41:49;17.63;;;9.38;;
73684;SDS011;61985;51.070;14.064;2023-03-01T15:44:24;16.80;;;9.25;;
73684;SDS011;61985;51.070;14.064;2023-03-01T15:46:51;17.27;;;9.48;;
73684;SDS011;61985;51.070;14.064;2023-03-01T15:52:41;20.00;;;9.07;;
73684;SDS011;61985;51.070;14.064;2023-03-01T15:55:05;19.63;;;10.45;;
73684;SDS011;61985;51.070;14.064;2023-03-01T15:57:39;21.20;;;10.02;;
73684;SDS011;61985;51.070;14.064;2023-03-01T16:00:04;18.52;;;8.93;;
73684;SDS011;61985;51.070;14.064;2023-03-01T16:02:36;16.52;;;8.65;;
73684;SDS011;61985;51.070;14.064;2023-03-01T16:05:02;16.23;;;7.97;;
73684;SDS011;61985;51.070;14.064;2023-03-01T16:07:28;17.05;;;7.60;;
73684;SDS011;61985;51.070;14.064;2023-03-01T16:09:53;14.68;;;6.60;;
73684;SDS011;61985;51.070;14.064;2023-03-01T16:12:19;14.43;;;7.28;;
73684;SDS011;61985;51.070;14.064;2023-03-01T16:14:46;17.85;;;7.45;;
73684;SDS011;61985;51.070;14.064;2023-03-01T16:17:13;24.63;;;8.20;;